Time;durP1;ratioP1;P1;durP2;ratioP2;P2;SDS_P1;SDS_P2;PMS_P1;PMS_P2;Temp;Humidity;BMP_temperature;BMP_pressure;BME280_temperature;BME280_humidity;BME280_pressure;Samples;Min_cycle;Max_cycle;Signal;HPM_P1;HPM_P2
2021/06/27 00:02:26;;;;;;;;;;;27.10;99.90;;;;;;1807406;78;20188;-92
2021/06/27 00:04:56;;;;;;;;;;;27.00;99.90;;;;;;1812853;78;20237;-91
2021/06/27 00:07:25;;;;;;;;;;;27.10;99.90;;;;;;1812911;77;20204;-91
2021/06/27 00:09:55;;;;;;;;;;;27.10;99.90;;;;;;1824071;78;20218;-91
2021/06/27 00:12:25;;;;;;;;;;;27.10;99.90;;;;;;1817564;78;20222;-76
2021/06/27 00:14:56;;;;;;;;;;;27.10;99.90;;;;;;1816861;78;20555;-78
2021/06/27 00:17:25;;;;;;;;;;;27.10;99.90;;;;;;1826394;78;20252;-77
2021/06/27 00:19:55;;;;;;;;;;;27.10;99.90;;;;;;1826208;78;20190;-76
2021/06/27 00:22:25;;;;;;;;;;;27.10;99.90;;;;;;1819303;78;20225;-76
2021/06/27 00:24:55;;;;;;;;;;;27.10;99.90;;;;;;1822035;78;20280;-78
2021/06/27 00:27:24;;;;;;;;;;;27.10;99.90;;;;;;1797529;79;20166;-78
2021/06/27 00:29:54;;;;;;;;;;;27.20;99.90;;;;;;1797621;78;20153;-77
2021/06/27 00:32:24;;;;;;;;;;;27.20;99.90;;;;;;1792386;79;20216;-77
2021/06/27 00:34:54;;;;;;;;;;;27.30;99.90;;;;;;1796622;79;20178;-76
2021/06/27 00:37:24;;;;;;;;;;;27.30;99.90;;;;;;1791871;79;20186;-76
2021/06/27 00:39:54;;;;;;;;;;;27.30;99.90;;;;;;1788438;79;20121;-77
2021/06/27 00:42:23;;;;;;;;;;;27.40;99.90;;;;;;1798438;79;20437;-76
2021/06/27 00:44:53;;;;;;;;;;;27.40;99.90;;;;;;1796435;79;20408;-76
2021/06/27 00:47:24;;;;;;;;;;;27.40;99.90;;;;;;1793156;79;20249;-77
2021/06/27 00:49:53;;;;;;;;;;;27.50;99.90;;;;;;1786423;79;20176;-76
2021/06/27 00:52:23;;;;;;;;;;;27.50;99.90;;;;;;1794782;79;20409;-76
2021/06/27 00:54:54;;;;;;;;;;;27.60;99.90;;;;;;1791723;78;20263;-77
2021/06/27 00:57:23;;;;;;;;;;;27.60;99.90;;;;;;1793430;79;20214;-75
2021/06/27 00:59:56;;;;;;;;;;;27.70;99.90;;;;;;1790966;79;20461;-76
2021/06/27 01:02:27;;;;;;;;;;;27.70;99.90;;;;;;1778656;79;20185;-76
2021/06/27 01:04:57;;;;;;;;;;;27.80;99.90;;;;;;1782665;79;20167;-76
2021/06/27 01:07:27;;;;;;;;;;;27.90;99.90;;;;;;1782467;79;20192;-76
2021/06/27 01:09:57;;;;;;;;;;;27.90;99.90;;;;;;1818245;78;20192;-76
2021/06/27 01:12:26;;;;;;;;;;;28.00;99.90;;;;;;1816942;78;20204;-77
2021/06/27 01:14:56;;;;;;;;;;;28.00;99.90;;;;;;1820018;78;20227;-75
2021/06/27 01:17:25;;;;;;;;;;;28.10;99.90;;;;;;1819495;78;20138;-75
2021/06/27 01:19:56;;;;;;;;;;;28.10;99.90;;;;;;1819863;78;20191;-76
2021/06/27 01:22:26;;;;;;;;;;;28.10;99.90;;;;;;1783350;78;20210;-75
2021/06/27 01:24:56;;;;;;;;;;;28.10;99.90;;;;;;1782590;79;20188;-77
2021/06/27 01:27:25;;;;;;;;;;;28.10;99.90;;;;;;1824769;78;20163;-76
2021/06/27 01:29:55;;;;;;;;;;;28.20;99.90;;;;;;1820143;78;20159;-75
2021/06/27 01:32:25;;;;;;;;;;;28.20;99.90;;;;;;1821983;78;20516;-75
2021/06/27 01:34:55;;;;;;;;;;;28.20;99.90;;;;;;1817472;77;20188;-75
2021/06/27 01:37:24;;;;;;;;;;;28.20;99.90;;;;;;1817270;78;20147;-76
2021/06/27 01:39:54;;;;;;;;;;;28.20;99.90;;;;;;1819045;78;20175;-75
2021/06/27 01:42:23;;;;;;;;;;;28.30;99.80;;;;;;1823896;77;20202;-75
2021/06/27 01:44:53;;;;;;;;;;;28.30;99.90;;;;;;1826353;77;20458;-76
2021/06/27 01:47:24;;;;;;;;;;;28.40;99.80;;;;;;1822175;77;20840;-76
2021/06/27 01:49:56;;;;;;;;;;;28.40;99.90;;;;;;1820760;77;20482;-76
2021/06/27 01:52:26;;;;;;;;;;;28.50;99.70;;;;;;1784738;78;20228;-75
2021/06/27 01:54:55;;;;;;;;;;;28.60;99.60;;;;;;1807784;77;20159;-76
2021/06/27 01:57:25;;;;;;;;;;;28.70;99.40;;;;;;1788837;78;20251;-75
2021/06/27 01:59:55;;;;;;;;;;;28.80;99.20;;;;;;1791429;79;20175;-76
2021/06/27 02:02:24;;;;;;;;;;;28.90;98.50;;;;;;1792841;78;20206;-75
2021/06/27 02:04:55;;;;;;;;;;;29.10;98.10;;;;;;1800919;79;20137;-76
2021/06/27 02:07:25;;;;;;;;;;;29.20;98.10;;;;;;1796522;79;20182;-75
2021/06/27 02:09:54;;;;;;;;;;;29.30;97.40;;;;;;1788145;79;20225;-76
2021/06/27 02:12:24;;;;;;;;;;;29.30;96.90;;;;;;1789603;79;20210;-76
2021/06/27 02:14:54;;;;;;;;;;;29.40;96.40;;;;;;1792741;79;20189;-75
2021/06/27 02:17:24;;;;;;;;;;;29.40;97.00;;;;;;1789417;79;20205;-75
2021/06/27 02:19:56;;;;;;;;;;;29.40;96.80;;;;;;1792476;79;20139;-75
2021/06/27 02:22:25;;;;;;;;;;;29.40;96.30;;;;;;1789763;79;20232;-75
2021/06/27 02:24:55;;;;;;;;;;;29.40;96.40;;;;;;1791191;79;20464;-75
2021/06/27 02:27:25;;;;;;;;;;;29.40;96.40;;;;;;1790982;78;20392;-75
2021/06/27 02:29:55;;;;;;;;;;;29.40;96.50;;;;;;1790440;79;20170;-75
2021/06/27 02:32:25;;;;;;;;;;;29.50;96.10;;;;;;1791543;79;20177;-75
2021/06/27 02:34:56;;;;;;;;;;;29.60;95.90;;;;;;1785868;79;20218;-76
2021/06/27 02:37:25;;;;;;;;;;;29.70;95.80;;;;;;1793372;78;20207;-76
2021/06/27 02:40:00;;;;;;;;;;;29.90;95.30;;;;;;1793885;79;20224;-77
2021/06/27 02:42:29;;;;;;;;;;;30.10;94.00;;;;;;1786685;79;20186;-75
2021/06/27 02:44:59;;;;;;;;;;;30.20;94.30;;;;;;1789398;79;20250;-75
2021/06/27 02:47:29;;;;;;;;;;;30.30;94.10;;;;;;1789985;79;20190;-76
2021/06/27 02:50:06;;;;;;;;;;;30.50;93.30;;;;;;1790198;79;20217;-74
2021/06/27 02:52:36;;;;;;;;;;;30.50;92.80;;;;;;1785151;79;20186;-77
2021/06/27 02:55:07;;;;;;;;;;;30.60;92.60;;;;;;1784431;78;20149;-75
2021/06/27 02:57:37;;;;;;;;;;;30.70;92.20;;;;;;1780104;78;20919;-75
2021/06/27 03:00:07;;;;;;;;;;;30.80;92.60;;;;;;1817514;77;20197;-75
2021/06/27 03:02:37;;;;;;;;;;;30.90;92.60;;;;;;1811899;77;20137;-75
2021/06/27 03:05:08;;;;;;;;;;;31.10;91.40;;;;;;1811637;77;20242;-75
2021/06/27 03:07:38;;;;;;;;;;;31.10;90.50;;;;;;1817488;77;20198;-76
2021/06/27 03:10:11;;;;;;;;;;;31.10;91.10;;;;;;1813229;77;20135;-75
2021/06/27 03:12:42;;;;;;;;;;;31.10;91.40;;;;;;1813537;77;20137;-75
2021/06/27 03:15:13;;;;;;;;;;;31.10;91.10;;;;;;1816299;77;20263;-76
2021/06/27 03:17:42;;;;;;;;;;;31.10;91.30;;;;;;1817087;77;20674;-76
2021/06/27 03:20:13;;;;;;;;;;;31.20;91.40;;;;;;1815355;77;20567;-76
2021/06/27 03:22:44;;;;;;;;;;;31.20;91.10;;;;;;1816664;77;20270;-75
2021/06/27 03:25:14;;;;;;;;;;;31.20;90.20;;;;;;1815213;77;20209;-76
2021/06/27 03:27:45;;;;;;;;;;;31.30;90.30;;;;;;1781553;78;20200;-75
2021/06/27 03:30:15;;;;;;;;;;;31.30;90.30;;;;;;1786665;78;20235;-75
2021/06/27 03:32:45;;;;;;;;;;;31.40;90.40;;;;;;1800986;78;20192;-76
2021/06/27 03:35:15;;;;;;;;;;;31.40;90.40;;;;;;1810683;78;20196;-75
2021/06/27 03:40:17;;;;;;;;;;;31.60;89.80;;;;;;1783053;78;20308;-75
2021/06/27 03:42:48;;;;;;;;;;;31.60;90.40;;;;;;1799742;79;20188;-75
2021/06/27 03:45:18;;;;;;;;;;;31.70;90.10;;;;;;1780287;78;20209;-75
2021/06/27 03:47:48;;;;;;;;;;;31.80;89.20;;;;;;1794699;79;20224;-75
2021/06/27 03:50:19;;;;;;;;;;;31.80;89.50;;;;;;1787282;79;20274;-75
2021/06/27 03:52:49;;;;;;;;;;;32.00;87.90;;;;;;1778399;79;20274;-75
2021/06/27 03:55:21;;;;;;;;;;;32.00;88.00;;;;;;1774736;79;20245;-74
2021/06/27 03:57:51;;;;;;;;;;;32.20;87.40;;;;;;1806962;77;20215;-75
2021/06/27 04:00:21;;;;;;;;;;;32.20;87.50;;;;;;1816003;77;20486;-76
2021/06/27 04:02:50;;;;;;;;;;;32.20;88.00;;;;;;1792118;78;20689;-75
2021/06/27 04:05:20;;;;;;;;;;;32.20;87.20;;;;;;1816694;78;20262;-75
2021/06/27 04:07:50;;;;;;;;;;;32.30;86.30;;;;;;1820828;78;20210;-75
2021/06/27 04:10:20;;;;;;;;;;;32.20;87.40;;;;;;1817955;78;20534;-75
2021/06/27 04:13:09;;;;;;;;;;;32.20;88.10;;;;;;1808738;78;20222;-74
2021/06/27 04:15:39;;;;;;;;;;;32.10;87.40;;;;;;1837316;76;20251;-75
2021/06/27 04:18:09;;;;;;;;;;;32.10;86.70;;;;;;1847668;76;20539;-76
2021/06/27 04:20:39;;;;;;;;;;;32.00;87.60;;;;;;1844542;76;20262;-75
2021/06/27 04:23:09;;;;;;;;;;;31.90;87.30;;;;;;1851845;76;20484;-75
2021/06/27 04:25:39;;;;;;;;;;;31.90;88.70;;;;;;1842237;76;20175;-75
2021/06/27 04:28:09;;;;;;;;;;;32.00;88.40;;;;;;1846724;76;20240;-75
2021/06/27 04:30:39;;;;;;;;;;;32.10;87.90;;;;;;1848877;76;20272;-75
2021/06/27 04:33:10;;;;;;;;;;;32.20;87.80;;;;;;1850343;76;20248;-77
2021/06/27 04:35:40;;;;;;;;;;;32.40;86.80;;;;;;1788877;78;20129;-75
2021/06/27 04:38:12;;;;;;;;;;;32.50;87.20;;;;;;1851983;76;20217;-76
2021/06/27 04:40:42;;;;;;;;;;;32.60;86.10;;;;;;1854350;76;20208;-76
2021/06/27 04:43:12;;;;;;;;;;;32.80;86.50;;;;;;1856322;76;20191;-76
2021/06/27 04:45:42;;;;;;;;;;;32.90;84.20;;;;;;1854755;76;20227;-76
2021/06/27 04:48:12;;;;;;;;;;;32.80;84.70;;;;;;1855171;76;20127;-76
2021/06/27 04:50:42;;;;;;;;;;;32.80;84.00;;;;;;1861967;77;20218;-77
2021/06/27 04:53:12;;;;;;;;;;;32.80;83.30;;;;;;1857293;76;20201;-75
2021/06/27 04:55:43;;;;;;;;;;;32.80;83.70;;;;;;1851999;77;20178;-76
2021/06/27 04:58:13;;;;;;;;;;;32.80;82.50;;;;;;1859387;77;20196;-76
2021/06/27 05:00:45;;;;;;;;;;;32.60;84.40;;;;;;1855190;76;20214;-76
2021/06/27 05:03:14;;;;;;;;;;;32.60;84.90;;;;;;1859524;76;20202;-75
2021/06/27 05:05:44;;;;;;;;;;;32.50;84.40;;;;;;1847232;77;20197;-74
2021/06/27 05:08:14;;;;;;;;;;;32.50;85.80;;;;;;1845698;77;20222;-76
2021/06/27 05:10:44;;;;;;;;;;;32.60;86.30;;;;;;1820471;77;20262;-75
2021/06/27 05:13:14;;;;;;;;;;;32.80;83.20;;;;;;1792290;78;20446;-75
2021/06/27 05:15:43;;;;;;;;;;;32.90;83.10;;;;;;1855174;75;20270;-74
2021/06/27 05:18:13;;;;;;;;;;;33.00;83.40;;;;;;1862069;75;20671;-75
2021/06/27 05:20:46;;;;;;;;;;;33.10;82.70;;;;;;1852856;76;20282;-76
2021/06/27 05:23:16;;;;;;;;;;;33.30;82.00;;;;;;1856166;75;20194;-75
2021/06/27 05:25:46;;;;;;;;;;;33.30;82.40;;;;;;1857191;76;20272;-75
2021/06/27 05:28:23;;;;;;;;;;;33.40;82.50;;;;;;1868768;76;20222;-75
2021/06/27 05:30:58;;;;;;;;;;;33.40;81.10;;;;;;1834690;76;20190;-75
2021/06/27 05:33:28;;;;;;;;;;;33.30;80.90;;;;;;1862804;76;20253;-75
2021/06/27 05:36:08;;;;;;;;;;;;;;;;;;;;;
2021/06/27 05:38:41;;;;;;;;;;;33.00;82.40;;;;;;1864452;76;20177;-77
2021/06/27 05:41:11;;;;;;;;;;;33.00;82.50;;;;;;1867137;75;20131;-76
2021/06/27 05:43:41;;;;;;;;;;;33.10;81.90;;;;;;1857858;75;20248;-75
2021/06/27 05:46:14;;;;;;;;;;;33.10;81.90;;;;;;1868635;75;20220;-75
2021/06/27 05:48:46;;;;;;;;;;;33.10;82.00;;;;;;1870286;76;20164;-75
2021/06/27 05:51:18;;;;;;;;;;;33.00;81.60;;;;;;1874165;75;20257;-76
2021/06/27 05:53:55;;;;;;;;;;;32.90;81.00;;;;;;1860572;75;20578;-76
2021/06/27 05:56:25;;;;;;;;;;;32.90;80.90;;;;;;1862698;75;20212;-75
2021/06/27 05:58:55;;;;;;;;;;;32.90;81.80;;;;;;1856832;75;20237;-75
2021/06/27 06:01:26;;;;;;;;;;;33.00;81.50;;;;;;1870799;75;20264;-75
2021/06/27 06:03:56;;;;;;;;;;;33.10;81.50;;;;;;1866607;76;20222;-77
2021/06/27 06:06:26;;;;;;;;;;;33.20;81.50;;;;;;1861593;76;20242;-76
2021/06/27 06:08:56;;;;;;;;;;;33.30;80.20;;;;;;1862986;75;20245;-76
2021/06/27 06:11:46;;;;;;;;;;;33.40;79.10;;;;;;1868635;75;20211;-76
2021/06/27 06:14:16;;;;;;;;;;;33.50;78.40;;;;;;1824258;77;20214;-75
2021/06/27 06:16:55;;;;;;;;;;;;;;;;;;;;;
2021/06/27 06:19:20;;;;;;;;;;;33.60;79.90;;;;;;1756183;80;20262;-76
2021/06/27 06:21:51;;;;;;;;;;;33.60;75.90;;;;;;1795920;78;20168;-77
2021/06/27 06:24:24;;;;;;;;;;;33.60;76.20;;;;;;1819286;77;20426;-77
2021/06/27 06:26:54;;;;;;;;;;;33.80;76.00;;;;;;1824013;77;20164;-76
2021/06/27 06:29:24;;;;;;;;;;;33.80;75.30;;;;;;1825932;77;20239;-76
2021/06/27 06:31:53;;;;;;;;;;;33.90;74.80;;;;;;1824010;77;20254;-77
2021/06/27 06:34:23;;;;;;;;;;;33.90;76.50;;;;;;1825195;77;20180;-77
2021/06/27 06:36:53;;;;;;;;;;;33.90;75.70;;;;;;1821748;77;20188;-77
2021/06/27 06:39:24;;;;;;;;;;;33.90;74.80;;;;;;1826001;77;20101;-76
2021/06/27 06:41:58;;;;;;;;;;;33.90;74.40;;;;;;1824550;77;20231;-76
2021/06/27 06:44:34;;;;;;;;;;;33.90;74.70;;;;;;1816700;77;20224;-75
2021/06/27 06:47:04;;;;;;;;;;;33.80;75.10;;;;;;1832592;77;20547;-75
2021/06/27 06:49:34;;;;;;;;;;;33.60;75.10;;;;;;1814973;77;20200;-75
2021/06/27 06:52:05;;;;;;;;;;;33.50;76.30;;;;;;1823041;77;20243;-74
2021/06/27 06:54:34;;;;;;;;;;;33.50;76.10;;;;;;1831802;77;20212;-75
2021/06/27 06:57:04;;;;;;;;;;;33.60;75.60;;;;;;1827968;77;20217;-75
2021/06/27 06:59:34;;;;;;;;;;;33.70;75.40;;;;;;1818860;77;20178;-75
2021/06/27 07:02:04;;;;;;;;;;;33.80;74.80;;;;;;1810381;77;20212;-74
2021/06/27 07:04:39;;;;;;;;;;;33.80;73.50;;;;;;1813128;78;20589;-75
2021/06/27 07:07:06;;;;;;;;;;;33.70;73.30;;;;;;1816568;78;20435;-76
2021/06/27 07:09:41;;;;;;;;;;;33.70;73.70;;;;;;1803225;79;20244;-75
2021/06/27 07:12:14;;;;;;;;;;;33.70;73.70;;;;;;1809914;78;20164;-76
2021/06/27 07:14:45;;;;;;;;;;;33.70;73.40;;;;;;1819605;77;20129;-75
2021/06/27 07:17:17;;;;;;;;;;;33.70;74.20;;;;;;1792129;79;20203;-76
2021/06/27 07:19:47;;;;;;;;;;;33.70;75.20;;;;;;1822225;78;20515;-76
2021/06/27 07:22:17;;;;;;;;;;;33.70;73.70;;;;;;1812349;78;20214;-76
2021/06/27 07:24:46;;;;;;;;;;;33.60;74.00;;;;;;1815948;78;20141;-76
2021/06/27 07:27:16;;;;;;;;;;;33.60;74.90;;;;;;1786050;80;20230;-77
2021/06/27 07:29:46;;;;;;;;;;;33.60;73.90;;;;;;1821351;78;20242;-75
2021/06/27 07:32:17;;;;;;;;;;;33.70;72.90;;;;;;1806932;78;20339;-75
2021/06/27 07:34:47;;;;;;;;;;;33.70;72.00;;;;;;1805500;79;20218;-74
2021/06/27 07:37:17;;;;;;;;;;;33.80;70.80;;;;;;1819814;78;20455;-76
2021/06/27 07:39:46;;;;;;;;;;;33.90;70.50;;;;;;1783539;79;20194;-75
2021/06/27 07:42:16;;;;;;;;;;;34.00;70.60;;;;;;1790956;79;20295;-75
2021/06/27 07:44:46;;;;;;;;;;;33.90;70.60;;;;;;1775625;80;20290;-77
2021/06/27 07:47:15;;;;;;;;;;;33.90;71.80;;;;;;1774608;79;20265;-76
2021/06/27 07:49:45;;;;;;;;;;;33.80;71.30;;;;;;1776024;79;20196;-75
2021/06/27 07:52:15;;;;;;;;;;;33.70;70.90;;;;;;1831893;77;20224;-76
2021/06/27 07:54:44;;;;;;;;;;;33.80;73.10;;;;;;1794518;78;20218;-75
2021/06/27 07:57:14;;;;;;;;;;;33.70;71.20;;;;;;1753799;80;20137;-75
2021/06/27 07:59:44;;;;;;;;;;;33.70;71.50;;;;;;1800964;78;20143;-76
2021/06/27 08:02:13;;;;;;;;;;;33.70;71.90;;;;;;1821190;77;20182;-76
2021/06/27 08:04:52;;;;;;;;;;;33.60;72.50;;;;;;1814664;77;20130;-76
2021/06/27 08:07:23;;;;;;;;;;;33.50;72.40;;;;;;1834399;77;20694;-75
2021/06/27 08:09:53;;;;;;;;;;;33.40;72.70;;;;;;1820374;77;20139;-76
2021/06/27 08:12:26;;;;;;;;;;;33.30;73.30;;;;;;1829471;77;20277;-76
2021/06/27 08:15:01;;;;;;;;;;;33.30;73.40;;;;;;1825420;77;20221;-76
2021/06/27 08:17:34;;;;;;;;;;;33.30;73.70;;;;;;1823104;77;20205;-76
2021/06/27 08:20:05;;;;;;;;;;;33.30;72.90;;;;;;1823520;77;20550;-76
2021/06/27 08:22:35;;;;;;;;;;;33.30;72.70;;;;;;1816039;77;20547;-76
2021/06/27 08:25:05;;;;;;;;;;;33.40;73.30;;;;;;1821665;77;20233;-75
2021/06/27 08:27:35;;;;;;;;;;;33.30;73.40;;;;;;1831443;77;20243;-76
2021/06/27 08:30:07;;;;;;;;;;;33.30;73.70;;;;;;1824213;77;20242;-76
2021/06/27 08:32:43;;;;;;;;;;;33.30;73.80;;;;;;1833813;77;20239;-75
2021/06/27 08:35:10;;;;;;;;;;;33.30;74.30;;;;;;1827874;77;20128;-76
2021/06/27 08:37:44;;;;;;;;;;;33.30;74.70;;;;;;1824045;77;20189;-75
2021/06/27 08:40:30;;;;;;;;;;;33.20;74.30;;;;;;1788296;78;20210;-76
2021/06/27 08:43:01;;;;;;;;;;;33.20;75.10;;;;;;1794076;79;20231;-76
2021/06/27 08:45:34;;;;;;;;;;;33.20;74.90;;;;;;1792595;79;20241;-76
2021/06/27 08:48:04;;;;;;;;;;;33.20;74.90;;;;;;1795880;78;20240;-76
2021/06/27 08:50:35;;;;;;;;;;;33.10;75.90;;;;;;1793155;79;20191;-76
2021/06/27 08:53:06;;;;;;;;;;;33.00;77.70;;;;;;1795291;79;20181;-77
2021/06/27 08:58:20;;;;;;;;;;;32.20;75.20;;;;;;1796384;79;20317;-78
2021/06/27 09:00:50;;;;;;;;;;;31.50;71.90;;;;;;1796419;79;20229;-76
2021/06/27 09:03:24;;;;;;;;;;;30.80;73.80;;;;;;1798117;79;20208;-76
2021/06/27 09:05:53;;;;;;;;;;;30.20;79.20;;;;;;1799707;79;20222;-77
2021/06/27 09:08:23;;;;;;;;;;;29.70;81.80;;;;;;1798243;79;20204;-77
2021/06/27 09:10:54;;;;;;;;;;;29.30;82.90;;;;;;1802095;79;20157;-77
2021/06/27 09:13:24;;;;;;;;;;;28.90;81.50;;;;;;1797994;78;20184;-78
2021/06/27 09:15:58;;;;;;;;;;;28.70;82.40;;;;;;1801506;78;20168;-77
2021/06/27 09:18:32;;;;;;;;;;;28.50;81.80;;;;;;1803956;78;20277;-77
2021/06/27 09:21:02;;;;;;;;;;;28.20;83.80;;;;;;1795446;78;20424;-77
2021/06/27 09:23:37;;;;;;;;;;;27.90;85.90;;;;;;1803260;78;20195;-77
2021/06/27 09:26:08;;;;;;;;;;;27.70;85.90;;;;;;1807048;78;20265;-76
2021/06/27 09:28:39;;;;;;;;;;;27.50;85.40;;;;;;1803675;78;20179;-76
2021/06/27 09:31:09;;;;;;;;;;;27.40;87.20;;;;;;1807103;78;20292;-76
2021/06/27 09:33:43;;;;;;;;;;;27.40;87.80;;;;;;1805516;78;20276;-77
2021/06/27 09:36:14;;;;;;;;;;;27.40;89.80;;;;;;1808842;78;20345;-77
2021/06/27 09:38:47;;;;;;;;;;;27.50;90.30;;;;;;1804604;78;20168;-77
2021/06/27 09:41:22;;;;;;;;;;;27.60;89.20;;;;;;1815765;78;20180;-76
2021/06/27 09:43:51;;;;;;;;;;;27.70;89.50;;;;;;1808317;78;20239;-76
2021/06/27 09:46:23;;;;;;;;;;;27.80;90.40;;;;;;1813099;78;20242;-76
2021/06/27 09:48:54;;;;;;;;;;;27.80;90.00;;;;;;1803954;78;20207;-76
2021/06/27 09:51:26;;;;;;;;;;;27.80;90.70;;;;;;1807373;78;20246;-76
2021/06/27 09:53:56;;;;;;;;;;;27.90;90.80;;;;;;1819018;77;20211;-76
2021/06/27 09:56:27;;;;;;;;;;;27.90;90.30;;;;;;1818037;78;20529;-76
2021/06/27 09:58:58;;;;;;;;;;;27.90;90.50;;;;;;1799490;78;20722;-76
2021/06/27 10:01:29;;;;;;;;;;;27.80;90.70;;;;;;1809219;78;20203;-76
2021/06/27 10:04:01;;;;;;;;;;;27.80;90.60;;;;;;1816712;78;20219;-77
2021/06/27 10:06:32;;;;;;;;;;;27.80;91.10;;;;;;1815246;78;20450;-76
2021/06/27 10:09:03;;;;;;;;;;;27.80;91.30;;;;;;1818658;78;20192;-76
2021/06/27 10:11:33;;;;;;;;;;;27.80;91.40;;;;;;1815499;78;20182;-77
2021/06/27 10:14:04;;;;;;;;;;;27.80;91.60;;;;;;1796908;78;20468;-77
2021/06/27 10:16:34;;;;;;;;;;;27.80;91.90;;;;;;1781809;79;20525;-76
2021/06/27 10:19:04;;;;;;;;;;;27.80;92.40;;;;;;1778295;79;20286;-76
2021/06/27 10:21:35;;;;;;;;;;;27.90;92.60;;;;;;1775755;79;20280;-76
2021/06/27 10:24:08;;;;;;;;;;;27.90;93.10;;;;;;1762980;79;20223;-77
2021/06/27 10:26:37;;;;;;;;;;;28.00;92.40;;;;;;1769786;79;20690;-77
2021/06/27 10:29:08;;;;;;;;;;;28.00;92.40;;;;;;1783671;79;20601;-75
2021/06/27 10:31:38;;;;;;;;;;;28.10;91.70;;;;;;1749919;80;20242;-77
2021/06/27 10:34:08;;;;;;;;;;;28.10;92.30;;;;;;1777449;79;20158;-77
2021/06/27 10:36:39;;;;;;;;;;;28.10;92.40;;;;;;1784226;79;20259;-77
2021/06/27 10:39:10;;;;;;;;;;;28.10;92.90;;;;;;1775379;79;21057;-76
2021/06/27 10:41:40;;;;;;;;;;;28.10;93.30;;;;;;1773546;79;20284;-76
2021/06/27 10:44:10;;;;;;;;;;;28.10;93.70;;;;;;1721722;82;20165;-76
2021/06/27 10:46:41;;;;;;;;;;;28.00;93.40;;;;;;1720267;81;20272;-76
2021/06/27 10:49:13;;;;;;;;;;;28.00;93.10;;;;;;1720495;81;20187;-76
2021/06/27 10:51:43;;;;;;;;;;;28.00;93.10;;;;;;1709366;83;20146;-76
2021/06/27 10:54:16;;;;;;;;;;;28.00;92.80;;;;;;1712667;83;20148;-75
2021/06/27 10:56:46;;;;;;;;;;;28.10;93.00;;;;;;1717394;83;20192;-76
2021/06/27 10:59:17;;;;;;;;;;;28.10;93.30;;;;;;1714085;83;20188;-76
2021/06/27 11:01:50;;;;;;;;;;;28.10;93.90;;;;;;1713701;81;20126;-77
2021/06/27 11:04:21;;;;;;;;;;;28.00;93.50;;;;;;1728752;81;20248;-76
2021/06/27 11:06:51;;;;;;;;;;;28.00;93.30;;;;;;1720227;82;20294;-76
2021/06/27 11:09:21;;;;;;;;;;;28.00;94.00;;;;;;1715739;81;20191;-77
2021/06/27 11:11:53;;;;;;;;;;;28.00;94.80;;;;;;1720760;81;20229;-76
2021/06/27 11:14:23;;;;;;;;;;;27.90;94.70;;;;;;1727992;81;20139;-76
2021/06/27 11:16:54;;;;;;;;;;;27.80;94.60;;;;;;1754476;80;20167;-77
2021/06/27 11:19:25;;;;;;;;;;;27.80;94.70;;;;;;1744081;80;20245;-76
2021/06/27 11:21:56;;;;;;;;;;;27.80;94.60;;;;;;1752182;80;20502;-77
2021/06/27 11:24:27;;;;;;;;;;;27.80;94.40;;;;;;1744595;80;20544;-76
2021/06/27 11:26:57;;;;;;;;;;;27.90;94.40;;;;;;1718084;81;20286;-77
2021/06/27 11:29:28;;;;;;;;;;;27.90;94.00;;;;;;1782529;79;20243;-77
2021/06/27 11:31:59;;;;;;;;;;;27.90;94.10;;;;;;1788717;79;20211;-76
2021/06/27 11:34:31;;;;;;;;;;;27.90;93.70;;;;;;1759180;80;20168;-77
2021/06/27 11:37:01;;;;;;;;;;;28.00;93.80;;;;;;1788395;79;20258;-76
2021/06/27 11:39:32;;;;;;;;;;;28.00;93.80;;;;;;1795054;79;20444;-76
2021/06/27 11:42:02;;;;;;;;;;;28.10;93.90;;;;;;1794845;79;20200;-76
2021/06/27 11:44:31;;;;;;;;;;;28.10;94.40;;;;;;1795734;79;20176;-76
2021/06/27 11:47:03;;;;;;;;;;;28.10;94.70;;;;;;1785890;79;20141;-77
2021/06/27 11:49:34;;;;;;;;;;;28.10;95.00;;;;;;1797325;79;20135;-76
2021/06/27 11:52:03;;;;;;;;;;;28.10;95.30;;;;;;1801162;79;20257;-76
2021/06/27 11:54:33;;;;;;;;;;;28.10;95.30;;;;;;1797815;79;20235;-77
2021/06/27 11:57:04;;;;;;;;;;;28.10;95.50;;;;;;1801814;79;20237;-76
2021/06/27 11:59:39;;;;;;;;;;;28.10;95.10;;;;;;1798108;78;20422;-76
2021/06/27 12:02:07;;;;;;;;;;;28.10;95.10;;;;;;1797110;79;20231;-76
2021/06/27 12:04:38;;;;;;;;;;;28.10;95.30;;;;;;1785318;79;20202;-77
2021/06/27 12:07:09;;;;;;;;;;;28.00;95.60;;;;;;1801465;79;20226;-77
2021/06/27 12:09:38;;;;;;;;;;;28.00;96.40;;;;;;1784172;79;20198;-77
2021/06/27 12:12:08;;;;;;;;;;;27.90;96.60;;;;;;1794581;79;20250;-76
2021/06/27 12:14:39;;;;;;;;;;;27.80;96.80;;;;;;1785977;79;20256;-75
2021/06/27 12:17:10;;;;;;;;;;;27.80;96.60;;;;;;1778009;78;20264;-76
2021/06/27 12:19:41;;;;;;;;;;;27.70;96.60;;;;;;1782778;79;20168;-78
2021/06/27 12:22:11;;;;;;;;;;;27.70;96.70;;;;;;1790616;79;20239;-76
2021/06/27 12:24:40;;;;;;;;;;;27.70;97.00;;;;;;1772181;79;20494;-75
2021/06/27 12:27:11;;;;;;;;;;;27.70;96.70;;;;;;1774055;79;20159;-76
2021/06/27 12:29:42;;;;;;;;;;;27.60;96.30;;;;;;1773157;79;20283;-77
2021/06/27 12:32:12;;;;;;;;;;;27.60;96.90;;;;;;1770587;79;20255;-76
2021/06/27 12:34:42;;;;;;;;;;;27.60;97.30;;;;;;1705460;81;20225;-77
2021/06/27 12:37:12;;;;;;;;;;;27.60;97.30;;;;;;1696321;83;20281;-78
2021/06/27 12:39:42;;;;;;;;;;;27.60;97.20;;;;;;1715458;80;20490;-77
2021/06/27 12:42:15;;;;;;;;;;;27.50;97.50;;;;;;1781298;79;20162;-77
2021/06/27 12:44:44;;;;;;;;;;;27.50;97.40;;;;;;1776576;80;20701;-89
2021/06/27 12:47:16;;;;;;;;;;;27.60;97.30;;;;;;1793775;80;20246;-90
2021/06/27 12:49:47;;;;;;;;;;;27.60;97.30;;;;;;1766819;79;20201;-90
2021/06/27 12:52:26;;;;;;;;;;;27.60;96.80;;;;;;1769309;80;20210;-91
2021/06/27 12:54:56;;;;;;;;;;;27.60;96.90;;;;;;1769399;79;20232;-91
2021/06/27 12:57:26;;;;;;;;;;;27.60;98.10;;;;;;1755696;79;20251;-90
2021/06/27 12:59:57;;;;;;;;;;;27.60;97.80;;;;;;1774304;79;20251;-91
2021/06/27 13:02:30;;;;;;;;;;;27.60;98.00;;;;;;1771566;79;20235;-90
2021/06/27 13:05:00;;;;;;;;;;;27.60;97.70;;;;;;1778659;79;20278;-91
2021/06/27 13:07:31;;;;;;;;;;;27.50;97.80;;;;;;1771698;79;20891;-89
2021/06/27 13:10:03;;;;;;;;;;;27.50;97.90;;;;;;1771478;79;20309;-91
2021/06/27 13:12:38;;;;;;;;;;;27.50;97.80;;;;;;1768263;78;20220;-89
2021/06/27 13:15:09;;;;;;;;;;;27.40;97.70;;;;;;1756353;80;20235;-90
2021/06/27 13:17:39;;;;;;;;;;;27.50;97.80;;;;;;1742854;80;20195;-89
2021/06/27 13:20:11;;;;;;;;;;;27.50;98.20;;;;;;1753195;80;20220;-90
2021/06/27 13:22:42;;;;;;;;;;;27.50;97.80;;;;;;1755922;80;20240;-89
2021/06/27 13:25:15;;;;;;;;;;;27.50;97.40;;;;;;1748290;80;20185;-91
2021/06/27 13:27:47;;;;;;;;;;;27.50;97.70;;;;;;1753482;80;20220;-90
2021/06/27 13:30:22;;;;;;;;;;;27.60;98.30;;;;;;1728589;83;20171;-90
2021/06/27 13:33:13;;;;;;;;;;;27.60;98.90;;;;;;1714954;82;20491;-90
2021/06/27 13:35:48;;;;;;;;;;;27.50;98.40;;;;;;1708982;83;20195;-90
2021/06/27 13:38:17;;;;;;;;;;;27.50;98.40;;;;;;1717136;83;20209;-89
2021/06/27 13:40:50;;;;;;;;;;;27.50;98.30;;;;;;1705991;83;20243;-90
2021/06/27 13:43:20;;;;;;;;;;;27.60;98.30;;;;;;1712211;82;20240;-90
2021/06/27 13:45:50;;;;;;;;;;;27.60;98.80;;;;;;1731251;82;20173;-89
2021/06/27 13:48:20;;;;;;;;;;;27.60;98.40;;;;;;1727756;82;20279;-90
2021/06/27 13:50:50;;;;;;;;;;;27.60;98.40;;;;;;1728162;82;20221;-89
2021/06/27 13:53:20;;;;;;;;;;;27.60;98.60;;;;;;1728234;81;20310;-90
2021/06/27 13:56:14;;;;;;;;;;;27.50;98.60;;;;;;1720659;82;20507;-89
2021/06/27 14:01:28;;;;;;;;;;;27.50;98.70;;;;;;1729571;82;20181;-90
2021/06/27 14:04:05;;;;;;;;;;;27.50;99.70;;;;;;1728457;82;20215;-90
2021/06/27 14:06:32;;;;;;;;;;;27.40;99.90;;;;;;1706064;82;20229;-90
2021/06/27 14:09:01;;;;;;;;;;;27.30;99.80;;;;;;1728952;82;20213;-90
2021/06/27 14:11:36;;;;;;;;;;;27.30;99.80;;;;;;1728267;82;20425;-89
2021/06/27 14:14:05;;;;;;;;;;;27.30;99.90;;;;;;1721479;82;20235;-89
2021/06/27 14:16:37;;;;;;;;;;;27.30;99.90;;;;;;1737064;81;20230;-90
2021/06/27 14:19:06;;;;;;;;;;;27.40;99.90;;;;;;1740917;81;20508;-90
2021/06/27 14:21:36;;;;;;;;;;;27.40;99.90;;;;;;1735753;81;20191;-90
2021/06/27 14:24:09;;;;;;;;;;;27.40;99.70;;;;;;1740124;81;20205;-90
2021/06/27 14:26:39;;;;;;;;;;;27.40;99.70;;;;;;1740614;82;20604;-90
2021/06/27 14:35:32;;;;;;;;;;;27.50;99.90;;;;;;1735872;82;20703;-90
2021/06/27 14:38:03;;;;;;;;;;;27.50;99.60;;;;;;1740710;82;20208;-90
2021/06/27 14:40:39;;;;;;;;;;;27.40;99.90;;;;;;1742021;82;20237;-90
2021/06/27 14:43:04;;;;;;;;;;;27.50;99.50;;;;;;1739550;81;20466;-90
2021/06/27 14:45:36;;;;;;;;;;;27.50;99.40;;;;;;1748698;77;20160;-89
2021/06/27 14:48:06;;;;;;;;;;;27.50;99.80;;;;;;1736880;76;20177;-89
2021/06/27 14:50:36;;;;;;;;;;;27.50;99.60;;;;;;1749198;76;20124;-89
2021/06/27 15:09:40;;;;;;;;;;;27.50;99.10;;;;;;1912063;71;20257;-90
2021/06/27 15:12:11;;;;;;;;;;;27.50;98.90;;;;;;1903905;73;20331;-90